sensor_id;sensor_type;location;lat;lon;timestamp;temperature;humidity
69895;DHT22;57172;52.034;5.090;2022-10-16T00:00:57;14.20;71.30
69895;DHT22;57172;52.034;5.090;2022-10-16T00:03:24;14.20;71.40
69895;DHT22;57172;52.034;5.090;2022-10-16T00:05:59;14.20;71.50
69895;DHT22;57172;52.034;5.090;2022-10-16T00:08:27;14.20;71.50
69895;DHT22;57172;52.034;5.090;2022-10-16T00:10:59;14.20;71.60
69895;DHT22;57172;52.034;5.090;2022-10-16T00:13:26;14.20;71.50
69895;DHT22;57172;52.034;5.090;2022-10-16T00:15:55;14.20;71.60
69895;DHT22;57172;52.034;5.090;2022-10-16T00:18:23;14.30;71.50
69895;DHT22;57172;52.034;5.090;2022-10-16T00:20:51;14.30;71.50
69895;DHT22;57172;52.034;5.090;2022-10-16T00:23:18;14.30;71.50
69895;DHT22;57172;52.034;5.090;2022-10-16T00:25:53;14.30;71.50
69895;DHT22;57172;52.034;5.090;2022-10-16T00:28:20;14.30;71.40
69895;DHT22;57172;52.034;5.090;2022-10-16T00:30:47;14.40;71.40
69895;DHT22;57172;52.034;5.090;2022-10-16T00:33:14;14.40;71.40
69895;DHT22;57172;52.034;5.090;2022-10-16T00:35:41;14.40;71.40
69895;DHT22;57172;52.034;5.090;2022-10-16T00:38:08;14.40;71.50
69895;DHT22;57172;52.034;5.090;2022-10-16T00:40:35;14.40;71.50
69895;DHT22;57172;52.034;5.090;2022-10-16T00:43:02;14.40;71.60
69895;DHT22;57172;52.034;5.090;2022-10-16T00:45:29;14.40;71.70
69895;DHT22;57172;52.034;5.090;2022-10-16T00:47:56;14.40;71.80
69895;DHT22;57172;52.034;5.090;2022-10-16T00:50:30;14.50;72.00
69895;DHT22;57172;52.034;5.090;2022-10-16T00:52:58;14.50;72.00
69895;DHT22;57172;52.034;5.090;2022-10-16T00:55:27;14.40;72.10
69895;DHT22;57172;52.034;5.090;2022-10-16T00:57:57;14.50;72.20
69895;DHT22;57172;52.034;5.090;2022-10-16T01:00:26;14.50;72.40
69895;DHT22;57172;52.034;5.090;2022-10-16T01:02:59;14.50;72.40
69895;DHT22;57172;52.034;5.090;2022-10-16T01:05:33;14.50;72.40
69895;DHT22;57172;52.034;5.090;2022-10-16T01:08:13;14.50;72.40
69895;DHT22;57172;52.034;5.090;2022-10-16T01:10:52;14.50;72.50
69895;DHT22;57172;52.034;5.090;2022-10-16T01:13:27;14.50;72.50
69895;DHT22;57172;52.034;5.090;2022-10-16T01:16:07;14.50;72.50
69895;DHT22;57172;52.034;5.090;2022-10-16T01:18:45;14.60;72.70
69895;DHT22;57172;52.034;5.090;2022-10-16T01:21:26;14.50;72.70
69895;DHT22;57172;52.034;5.090;2022-10-16T01:24:08;14.60;72.80
69895;DHT22;57172;52.034;5.090;2022-10-16T01:26:44;14.60;72.90
69895;DHT22;57172;52.034;5.090;2022-10-16T01:29:28;14.60;72.80
69895;DHT22;57172;52.034;5.090;2022-10-16T01:32:00;14.60;73.00
69895;DHT22;57172;52.034;5.090;2022-10-16T01:34:50;14.60;73.00
69895;DHT22;57172;52.034;5.090;2022-10-16T01:37:39;14.60;73.00
69895;DHT22;57172;52.034;5.090;2022-10-16T01:40:11;14.60;73.10
69895;DHT22;57172;52.034;5.090;2022-10-16T01:42:42;14.60;73.30
69895;DHT22;57172;52.034;5.090;2022-10-16T01:45:13;14.50;73.70
69895;DHT22;57172;52.034;5.090;2022-10-16T01:47:41;14.40;74.00
69895;DHT22;57172;52.034;5.090;2022-10-16T01:50:11;14.40;74.20
69895;DHT22;57172;52.034;5.090;2022-10-16T01:52:41;14.40;74.30
69895;DHT22;57172;52.034;5.090;2022-10-16T01:55:13;14.40;74.30
69895;DHT22;57172;52.034;5.090;2022-10-16T01:57:44;14.40;74.30
69895;DHT22;57172;52.034;5.090;2022-10-16T02:00:14;14.40;74.30
69895;DHT22;57172;52.034;5.090;2022-10-16T02:02:47;14.40;74.40
69895;DHT22;57172;52.034;5.090;2022-10-16T02:05:42;14.40;74.40
69895;DHT22;57172;52.034;5.090;2022-10-16T02:08:11;14.40;74.30
69895;DHT22;57172;52.034;5.090;2022-10-16T02:10:38;14.40;74.30
69895;DHT22;57172;52.034;5.090;2022-10-16T02:13:13;14.30;74.40
69895;DHT22;57172;52.034;5.090;2022-10-16T02:15:41;14.30;74.50
69895;DHT22;57172;52.034;5.090;2022-10-16T02:18:09;14.30;74.70
69895;DHT22;57172;52.034;5.090;2022-10-16T02:21:43;14.20;74.70
69895;DHT22;57172;52.034;5.090;2022-10-16T02:29:11;14.10;75.10
69895;DHT22;57172;52.034;5.090;2022-10-16T02:31:41;14.10;75.30
69895;DHT22;57172;52.034;5.090;2022-10-16T02:34:11;14.10;75.50
69895;DHT22;57172;52.034;5.090;2022-10-16T02:36:40;14.10;75.70
69895;DHT22;57172;52.034;5.090;2022-10-16T02:39:09;14.10;75.80
69895;DHT22;57172;52.034;5.090;2022-10-16T02:41:36;14.10;75.70
69895;DHT22;57172;52.034;5.090;2022-10-16T02:44:03;14.10;75.80
69895;DHT22;57172;52.034;5.090;2022-10-16T02:46:30;14.10;75.90
69895;DHT22;57172;52.034;5.090;2022-10-16T02:48:56;14.10;75.90
69895;DHT22;57172;52.034;5.090;2022-10-16T02:51:23;14.10;75.90
69895;DHT22;57172;52.034;5.090;2022-10-16T02:53:50;14.10;76.00
69895;DHT22;57172;52.034;5.090;2022-10-16T02:56:17;14.10;75.90
69895;DHT22;57172;52.034;5.090;2022-10-16T02:58:45;14.10;76.00
69895;DHT22;57172;52.034;5.090;2022-10-16T03:01:12;14.10;76.00
69895;DHT22;57172;52.034;5.090;2022-10-16T03:03:40;14.10;76.00
69895;DHT22;57172;52.034;5.090;2022-10-16T03:06:07;14.10;76.00
69895;DHT22;57172;52.034;5.090;2022-10-16T03:08:34;14.10;76.10
69895;DHT22;57172;52.034;5.090;2022-10-16T03:11:01;14.10;76.20
69895;DHT22;57172;52.034;5.090;2022-10-16T03:13:28;14.10;76.20
69895;DHT22;57172;52.034;5.090;2022-10-16T03:15:54;14.10;76.20
69895;DHT22;57172;52.034;5.090;2022-10-16T03:18:21;14.10;76.40
69895;DHT22;57172;52.034;5.090;2022-10-16T03:20:48;14.10;76.40
69895;DHT22;57172;52.034;5.090;2022-10-16T03:23:15;14.10;76.40
69895;DHT22;57172;52.034;5.090;2022-10-16T03:25:42;14.00;76.30
69895;DHT22;57172;52.034;5.090;2022-10-16T03:28:09;14.00;76.50
69895;DHT22;57172;52.034;5.090;2022-10-16T03:30:35;13.90;76.70
69895;DHT22;57172;52.034;5.090;2022-10-16T03:33:02;13.90;76.70
69895;DHT22;57172;52.034;5.090;2022-10-16T03:35:29;13.90;76.90
69895;DHT22;57172;52.034;5.090;2022-10-16T03:37:56;13.90;76.90
69895;DHT22;57172;52.034;5.090;2022-10-16T03:40:23;13.80;77.10
69895;DHT22;57172;52.034;5.090;2022-10-16T03:42:50;13.90;77.40
69895;DHT22;57172;52.034;5.090;2022-10-16T03:45:17;13.90;77.40
69895;DHT22;57172;52.034;5.090;2022-10-16T03:47:43;13.90;77.30
69895;DHT22;57172;52.034;5.090;2022-10-16T03:50:10;13.90;77.30
69895;DHT22;57172;52.034;5.090;2022-10-16T03:52:37;13.80;77.30
69895;DHT22;57172;52.034;5.090;2022-10-16T03:55:04;13.90;77.30
69895;DHT22;57172;52.034;5.090;2022-10-16T03:57:31;13.90;77.10
69895;DHT22;57172;52.034;5.090;2022-10-16T03:59:58;13.80;77.20
69895;DHT22;57172;52.034;5.090;2022-10-16T04:02:25;13.80;77.30
69895;DHT22;57172;52.034;5.090;2022-10-16T04:04:52;13.80;77.50
69895;DHT22;57172;52.034;5.090;2022-10-16T04:07:19;13.80;77.50
69895;DHT22;57172;52.034;5.090;2022-10-16T04:09:45;13.70;77.50
69895;DHT22;57172;52.034;5.090;2022-10-16T04:12:13;13.80;77.60
69895;DHT22;57172;52.034;5.090;2022-10-16T04:14:39;13.70;77.70
69895;DHT22;57172;52.034;5.090;2022-10-16T04:17:06;13.70;77.80
69895;DHT22;57172;52.034;5.090;2022-10-16T04:19:33;13.70;77.90
69895;DHT22;57172;52.034;5.090;2022-10-16T04:22:00;13.70;78.00
69895;DHT22;57172;52.034;5.090;2022-10-16T04:24:27;13.70;78.00
69895;DHT22;57172;52.034;5.090;2022-10-16T04:26:54;13.80;78.00
69895;DHT22;57172;52.034;5.090;2022-10-16T04:29:21;13.80;78.00
69895;DHT22;57172;52.034;5.090;2022-10-16T04:31:48;13.80;78.00
69895;DHT22;57172;52.034;5.090;2022-10-16T04:34:15;13.80;77.90
69895;DHT22;57172;52.034;5.090;2022-10-16T04:36:41;13.80;77.90
69895;DHT22;57172;52.034;5.090;2022-10-16T04:39:08;13.80;78.00
69895;DHT22;57172;52.034;5.090;2022-10-16T04:41:35;13.80;78.00
69895;DHT22;57172;52.034;5.090;2022-10-16T04:44:02;13.70;77.90
69895;DHT22;57172;52.034;5.090;2022-10-16T04:46:29;13.70;77.70
69895;DHT22;57172;52.034;5.090;2022-10-16T04:48:56;13.70;77.90
69895;DHT22;57172;52.034;5.090;2022-10-16T04:51:22;13.70;78.10
69895;DHT22;57172;52.034;5.090;2022-10-16T04:53:49;13.70;77.90
69895;DHT22;57172;52.034;5.090;2022-10-16T04:56:16;13.70;77.70
69895;DHT22;57172;52.034;5.090;2022-10-16T04:58:43;13.70;77.80
69895;DHT22;57172;52.034;5.090;2022-10-16T05:01:10;13.60;78.10
69895;DHT22;57172;52.034;5.090;2022-10-16T05:03:36;13.60;78.00
69895;DHT22;57172;52.034;5.090;2022-10-16T05:06:05;13.50;78.30
69895;DHT22;57172;52.034;5.090;2022-10-16T05:08:33;13.50;78.50
69895;DHT22;57172;52.034;5.090;2022-10-16T05:10:59;13.50;78.60
69895;DHT22;57172;52.034;5.090;2022-10-16T05:13:27;13.40;78.80
69895;DHT22;57172;52.034;5.090;2022-10-16T05:15:53;13.40;78.60
69895;DHT22;57172;52.034;5.090;2022-10-16T05:18:20;13.40;78.60
69895;DHT22;57172;52.034;5.090;2022-10-16T05:20:47;13.40;78.80
69895;DHT22;57172;52.034;5.090;2022-10-16T05:23:14;13.40;79.00
69895;DHT22;57172;52.034;5.090;2022-10-16T05:25:41;13.40;79.10
69895;DHT22;57172;52.034;5.090;2022-10-16T05:28:07;13.40;79.00
69895;DHT22;57172;52.034;5.090;2022-10-16T05:30:37;13.40;79.00
69895;DHT22;57172;52.034;5.090;2022-10-16T05:33:03;13.40;79.00
69895;DHT22;57172;52.034;5.090;2022-10-16T05:35:30;13.50;79.10
69895;DHT22;57172;52.034;5.090;2022-10-16T05:37:57;13.50;79.00
69895;DHT22;57172;52.034;5.090;2022-10-16T05:40:24;13.50;79.00
69895;DHT22;57172;52.034;5.090;2022-10-16T05:42:55;13.50;79.10
69895;DHT22;57172;52.034;5.090;2022-10-16T05:45:21;13.50;79.10
69895;DHT22;57172;52.034;5.090;2022-10-16T05:47:48;13.50;79.00
69895;DHT22;57172;52.034;5.090;2022-10-16T05:50:15;13.60;79.00
69895;DHT22;57172;52.034;5.090;2022-10-16T05:52:42;13.60;78.90
69895;DHT22;57172;52.034;5.090;2022-10-16T05:55:09;13.60;78.90
69895;DHT22;57172;52.034;5.090;2022-10-16T05:57:35;13.60;78.80
69895;DHT22;57172;52.034;5.090;2022-10-16T06:00:03;13.70;78.70
69895;DHT22;57172;52.034;5.090;2022-10-16T06:02:38;13.70;78.60
69895;DHT22;57172;52.034;5.090;2022-10-16T06:05:05;13.70;78.60
69895;DHT22;57172;52.034;5.090;2022-10-16T06:07:34;13.70;78.60
69895;DHT22;57172;52.034;5.090;2022-10-16T06:10:03;13.70;78.60
69895;DHT22;57172;52.034;5.090;2022-10-16T06:12:30;13.70;78.70
69895;DHT22;57172;52.034;5.090;2022-10-16T06:14:57;13.70;78.60
69895;DHT22;57172;52.034;5.090;2022-10-16T06:17:24;13.70;78.60
69895;DHT22;57172;52.034;5.090;2022-10-16T06:19:51;13.80;78.50
69895;DHT22;57172;52.034;5.090;2022-10-16T06:22:18;13.80;78.50
69895;DHT22;57172;52.034;5.090;2022-10-16T06:24:45;13.80;78.50
69895;DHT22;57172;52.034;5.090;2022-10-16T06:27:13;13.80;78.60
69895;DHT22;57172;52.034;5.090;2022-10-16T06:29:39;13.80;78.80
69895;DHT22;57172;52.034;5.090;2022-10-16T06:32:06;13.70;78.90
69895;DHT22;57172;52.034;5.090;2022-10-16T06:34:33;13.70;79.10
69895;DHT22;57172;52.034;5.090;2022-10-16T06:37:00;13.70;79.20
69895;DHT22;57172;52.034;5.090;2022-10-16T06:39:27;13.70;79.20
69895;DHT22;57172;52.034;5.090;2022-10-16T06:41:54;13.80;79.30
69895;DHT22;57172;52.034;5.090;2022-10-16T06:44:24;13.80;79.30
69895;DHT22;57172;52.034;5.090;2022-10-16T06:46:51;13.80;79.40
69895;DHT22;57172;52.034;5.090;2022-10-16T06:49:18;13.80;79.60
69895;DHT22;57172;52.034;5.090;2022-10-16T06:51:49;13.80;79.70
69895;DHT22;57172;52.034;5.090;2022-10-16T06:54:16;13.70;80.00
69895;DHT22;57172;52.034;5.090;2022-10-16T06:56:44;13.70;80.20
69895;DHT22;57172;52.034;5.090;2022-10-16T06:59:11;13.70;80.30
69895;DHT22;57172;52.034;5.090;2022-10-16T07:01:38;13.60;80.40
69895;DHT22;57172;52.034;5.090;2022-10-16T07:04:05;13.60;80.80
69895;DHT22;57172;52.034;5.090;2022-10-16T07:06:33;13.60;80.90
69895;DHT22;57172;52.034;5.090;2022-10-16T07:09:05;13.60;80.80
69895;DHT22;57172;52.034;5.090;2022-10-16T07:11:33;13.60;80.40
69895;DHT22;57172;52.034;5.090;2022-10-16T07:13:59;13.60;80.20
69895;DHT22;57172;52.034;5.090;2022-10-16T07:16:28;13.70;79.90
69895;DHT22;57172;52.034;5.090;2022-10-16T07:18:56;13.80;79.80
69895;DHT22;57172;52.034;5.090;2022-10-16T07:21:32;13.80;79.80
69895;DHT22;57172;52.034;5.090;2022-10-16T07:24:04;13.90;79.90
69895;DHT22;57172;52.034;5.090;2022-10-16T07:26:34;13.90;80.00
69895;DHT22;57172;52.034;5.090;2022-10-16T07:29:01;14.00;79.90
69895;DHT22;57172;52.034;5.090;2022-10-16T07:31:29;14.00;79.90
69895;DHT22;57172;52.034;5.090;2022-10-16T07:33:58;14.10;79.80
69895;DHT22;57172;52.034;5.090;2022-10-16T07:36:25;14.10;79.80
69895;DHT22;57172;52.034;5.090;2022-10-16T07:38:52;14.20;79.50
69895;DHT22;57172;52.034;5.090;2022-10-16T07:41:25;14.10;79.40
69895;DHT22;57172;52.034;5.090;2022-10-16T07:43:53;14.10;79.50
69895;DHT22;57172;52.034;5.090;2022-10-16T07:46:22;14.20;79.50
69895;DHT22;57172;52.034;5.090;2022-10-16T07:48:49;14.20;79.40
69895;DHT22;57172;52.034;5.090;2022-10-16T07:51:18;14.20;79.40
69895;DHT22;57172;52.034;5.090;2022-10-16T07:53:46;14.30;79.30
69895;DHT22;57172;52.034;5.090;2022-10-16T07:56:14;14.30;79.30
69895;DHT22;57172;52.034;5.090;2022-10-16T07:58:41;14.30;79.20
69895;DHT22;57172;52.034;5.090;2022-10-16T08:01:10;14.40;79.00
69895;DHT22;57172;52.034;5.090;2022-10-16T08:03:38;14.40;79.00
69895;DHT22;57172;52.034;5.090;2022-10-16T08:06:05;14.50;78.80
69895;DHT22;57172;52.034;5.090;2022-10-16T08:08:32;14.50;78.80
69895;DHT22;57172;52.034;5.090;2022-10-16T08:10:58;14.60;78.80
69895;DHT22;57172;52.034;5.090;2022-10-16T08:13:25;14.80;79.20
69895;DHT22;57172;52.034;5.090;2022-10-16T08:15:53;15.10;80.50
69895;DHT22;57172;52.034;5.090;2022-10-16T08:18:20;15.50;83.10
69895;DHT22;57172;52.034;5.090;2022-10-16T08:20:47;16.00;81.30
69895;DHT22;57172;52.034;5.090;2022-10-16T08:23:14;16.50;79.80
69895;DHT22;57172;52.034;5.090;2022-10-16T08:25:41;16.90;79.80
69895;DHT22;57172;52.034;5.090;2022-10-16T08:28:10;17.40;76.00
69895;DHT22;57172;52.034;5.090;2022-10-16T08:30:37;17.70;74.30
69895;DHT22;57172;52.034;5.090;2022-10-16T08:33:04;18.00;72.10
69895;DHT22;57172;52.034;5.090;2022-10-16T08:35:33;18.20;72.20
69895;DHT22;57172;52.034;5.090;2022-10-16T08:38:00;18.50;70.70
69895;DHT22;57172;52.034;5.090;2022-10-16T08:40:30;18.90;69.80
69895;DHT22;57172;52.034;5.090;2022-10-16T08:48:49;19.70;66.80
69895;DHT22;57172;52.034;5.090;2022-10-16T08:51:46;20.00;67.50
69895;DHT22;57172;52.034;5.090;2022-10-16T08:54:30;20.50;65.90
69895;DHT22;57172;52.034;5.090;2022-10-16T08:57:09;20.80;63.00
69895;DHT22;57172;52.034;5.090;2022-10-16T08:59:37;20.90;62.20
69895;DHT22;57172;52.034;5.090;2022-10-16T09:02:24;21.10;60.80
69895;DHT22;57172;52.034;5.090;2022-10-16T09:11:00;21.80;60.40
69895;DHT22;57172;52.034;5.090;2022-10-16T09:13:53;22.10;59.90
69895;DHT22;57172;52.034;5.090;2022-10-16T09:16:32;22.20;58.20
69895;DHT22;57172;52.034;5.090;2022-10-16T09:19:16;22.40;57.60
69895;DHT22;57172;52.034;5.090;2022-10-16T09:21:46;22.70;56.50
69895;DHT22;57172;52.034;5.090;2022-10-16T09:24:17;22.80;56.60
69895;DHT22;57172;52.034;5.090;2022-10-16T09:26:46;23.00;56.30
69895;DHT22;57172;52.034;5.090;2022-10-16T09:29:14;23.20;55.90
69895;DHT22;57172;52.034;5.090;2022-10-16T09:31:42;23.30;54.60
69895;DHT22;57172;52.034;5.090;2022-10-16T09:36:56;23.30;53.40
69895;DHT22;57172;52.034;5.090;2022-10-16T09:39:23;23.10;54.00
69895;DHT22;57172;52.034;5.090;2022-10-16T09:41:51;23.20;54.10
69895;DHT22;57172;52.034;5.090;2022-10-16T09:44:27;23.40;54.10
69895;DHT22;57172;52.034;5.090;2022-10-16T09:47:03;23.40;52.80
69895;DHT22;57172;52.034;5.090;2022-10-16T09:49:30;23.20;51.70
69895;DHT22;57172;52.034;5.090;2022-10-16T09:52:12;23.00;52.40
69895;DHT22;57172;52.034;5.090;2022-10-16T09:54:57;22.90;52.90
69895;DHT22;57172;52.034;5.090;2022-10-16T09:57:24;23.00;53.20
69895;DHT22;57172;52.034;5.090;2022-10-16T09:59:57;23.10;52.40
69895;DHT22;57172;52.034;5.090;2022-10-16T10:02:35;23.30;54.20
69895;DHT22;57172;52.034;5.090;2022-10-16T10:05:05;23.80;53.30
69895;DHT22;57172;52.034;5.090;2022-10-16T10:07:43;24.30;51.70
69895;DHT22;57172;52.034;5.090;2022-10-16T10:10:27;24.50;50.00
69895;DHT22;57172;52.034;5.090;2022-10-16T10:12:55;24.20;50.50
69895;DHT22;57172;52.034;5.090;2022-10-16T10:15:23;24.30;51.50
69895;DHT22;57172;52.034;5.090;2022-10-16T10:17:55;24.70;50.40
69895;DHT22;57172;52.034;5.090;2022-10-16T10:20:35;25.00;49.30
69895;DHT22;57172;52.034;5.090;2022-10-16T10:23:23;25.40;49.10
69895;DHT22;57172;52.034;5.090;2022-10-16T10:26:05;25.50;46.50
69895;DHT22;57172;52.034;5.090;2022-10-16T10:31:17;25.60;46.30
69895;DHT22;57172;52.034;5.090;2022-10-16T10:33:53;25.20;47.00
69895;DHT22;57172;52.034;5.090;2022-10-16T10:42:12;25.70;47.70
69895;DHT22;57172;52.034;5.090;2022-10-16T10:47:52;25.50;45.70
69895;DHT22;57172;52.034;5.090;2022-10-16T10:50:31;25.10;46.90
69895;DHT22;57172;52.034;5.090;2022-10-16T10:53:28;25.20;47.40
69895;DHT22;57172;52.034;5.090;2022-10-16T10:56:20;25.10;45.80
69895;DHT22;57172;52.034;5.090;2022-10-16T10:59:24;24.50;46.30
69895;DHT22;57172;52.034;5.090;2022-10-16T11:07:17;24.60;47.60
69895;DHT22;57172;52.034;5.090;2022-10-16T11:09:51;25.20;46.80
69895;DHT22;57172;52.034;5.090;2022-10-16T11:12:29;25.60;45.80
69895;DHT22;57172;52.034;5.090;2022-10-16T11:17:49;26.20;43.30
69895;DHT22;57172;52.034;5.090;2022-10-16T11:20:20;26.50;42.70
69895;DHT22;57172;52.034;5.090;2022-10-16T11:22:51;26.60;42.40
69895;DHT22;57172;52.034;5.090;2022-10-16T11:25:28;26.60;41.80
69895;DHT22;57172;52.034;5.090;2022-10-16T11:28:15;26.70;41.80
69895;DHT22;57172;52.034;5.090;2022-10-16T11:30:50;26.80;41.90
69895;DHT22;57172;52.034;5.090;2022-10-16T11:35:59;27.20;42.60
69895;DHT22;57172;52.034;5.090;2022-10-16T11:38:29;27.70;40.80
69895;DHT22;57172;52.034;5.090;2022-10-16T11:41:03;27.90;40.40
69895;DHT22;57172;52.034;5.090;2022-10-16T11:43:37;28.00;39.50
69895;DHT22;57172;52.034;5.090;2022-10-16T11:46:12;27.90;38.90
69895;DHT22;57172;52.034;5.090;2022-10-16T11:51:57;27.40;40.30
69895;DHT22;57172;52.034;5.090;2022-10-16T11:54:35;27.50;39.70
69895;DHT22;57172;52.034;5.090;2022-10-16T11:57:17;27.60;39.60
69895;DHT22;57172;52.034;5.090;2022-10-16T12:02:50;27.80;39.60
69895;DHT22;57172;52.034;5.090;2022-10-16T12:05:23;28.20;39.30
69895;DHT22;57172;52.034;5.090;2022-10-16T12:08:10;28.10;37.60
69895;DHT22;57172;52.034;5.090;2022-10-16T12:10:39;27.30;38.80
69895;DHT22;57172;52.034;5.090;2022-10-16T12:13:32;26.90;40.10
69895;DHT22;57172;52.034;5.090;2022-10-16T12:18:43;27.10;39.40
69895;DHT22;57172;52.034;5.090;2022-10-16T12:21:13;27.10;39.40
69895;DHT22;57172;52.034;5.090;2022-10-16T12:23:54;27.00;38.30
69895;DHT22;57172;52.034;5.090;2022-10-16T12:26:44;26.60;38.50
69895;DHT22;57172;52.034;5.090;2022-10-16T12:29:37;26.40;38.30
69895;DHT22;57172;52.034;5.090;2022-10-16T12:35:30;25.00;39.20
69895;DHT22;57172;52.034;5.090;2022-10-16T12:38:17;24.10;40.60
69895;DHT22;57172;52.034;5.090;2022-10-16T12:40:56;23.80;42.20
69895;DHT22;57172;52.034;5.090;2022-10-16T12:43:36;24.00;43.10
69895;DHT22;57172;52.034;5.090;2022-10-16T12:48:36;24.80;43.00
69895;DHT22;57172;52.034;5.090;2022-10-16T13:11:20;25.60;41.00
69895;DHT22;57172;52.034;5.090;2022-10-16T13:21:51;26.50;41.00
69895;DHT22;57172;52.034;5.090;2022-10-16T13:24:31;26.80;40.60
69895;DHT22;57172;52.034;5.090;2022-10-16T13:27:28;26.90;40.30
69895;DHT22;57172;52.034;5.090;2022-10-16T13:30:11;26.80;40.10
69895;DHT22;57172;52.034;5.090;2022-10-16T13:32:39;26.70;40.00
69895;DHT22;57172;52.034;5.090;2022-10-16T13:35:20;26.60;39.50
69895;DHT22;57172;52.034;5.090;2022-10-16T13:37:47;26.10;40.10
69895;DHT22;57172;52.034;5.090;2022-10-16T13:40:22;25.80;40.30
69895;DHT22;57172;52.034;5.090;2022-10-16T13:42:51;25.40;40.70
69895;DHT22;57172;52.034;5.090;2022-10-16T13:45:24;25.00;41.60
69895;DHT22;57172;52.034;5.090;2022-10-16T13:48:05;24.70;42.50
69895;DHT22;57172;52.034;5.090;2022-10-16T13:50:32;24.50;42.90
69895;DHT22;57172;52.034;5.090;2022-10-16T13:53:15;24.40;43.10
69895;DHT22;57172;52.034;5.090;2022-10-16T13:55:41;24.10;43.20
69895;DHT22;57172;52.034;5.090;2022-10-16T13:58:12;23.70;43.80
69895;DHT22;57172;52.034;5.090;2022-10-16T14:00:42;23.40;44.40
69895;DHT22;57172;52.034;5.090;2022-10-16T14:03:20;23.30;45.00
69895;DHT22;57172;52.034;5.090;2022-10-16T14:05:52;23.20;45.10
69895;DHT22;57172;52.034;5.090;2022-10-16T14:08:20;23.00;45.30
69895;DHT22;57172;52.034;5.090;2022-10-16T14:10:52;22.70;45.80
69895;DHT22;57172;52.034;5.090;2022-10-16T14:13:31;22.50;45.80
69895;DHT22;57172;52.034;5.090;2022-10-16T14:16:01;22.40;46.10
69895;DHT22;57172;52.034;5.090;2022-10-16T14:18:29;22.30;46.40
69895;DHT22;57172;52.034;5.090;2022-10-16T14:21:12;22.20;46.60
69895;DHT22;57172;52.034;5.090;2022-10-16T14:23:41;22.20;47.00
69895;DHT22;57172;52.034;5.090;2022-10-16T14:28:36;22.00;47.50
69895;DHT22;57172;52.034;5.090;2022-10-16T14:33:53;22.10;47.60
69895;DHT22;57172;52.034;5.090;2022-10-16T14:36:20;22.10;47.50
69895;DHT22;57172;52.034;5.090;2022-10-16T14:39:04;22.10;47.60
69895;DHT22;57172;52.034;5.090;2022-10-16T14:41:35;22.10;48.00
69895;DHT22;57172;52.034;5.090;2022-10-16T14:44:11;22.10;48.20
69895;DHT22;57172;52.034;5.090;2022-10-16T14:46:40;22.20;47.90
69895;DHT22;57172;52.034;5.090;2022-10-16T14:51:38;22.40;47.90
69895;DHT22;57172;52.034;5.090;2022-10-16T14:54:15;22.50;47.80
69895;DHT22;57172;52.034;5.090;2022-10-16T14:56:49;22.60;48.30
69895;DHT22;57172;52.034;5.090;2022-10-16T14:59:39;22.70;48.30
69895;DHT22;57172;52.034;5.090;2022-10-16T15:02:35;22.70;48.00
69895;DHT22;57172;52.034;5.090;2022-10-16T15:07:38;22.50;47.70
69895;DHT22;57172;52.034;5.090;2022-10-16T15:10:05;22.40;48.00
69895;DHT22;57172;52.034;5.090;2022-10-16T15:12:32;22.30;48.10
69895;DHT22;57172;52.034;5.090;2022-10-16T15:14:59;22.30;48.40
69895;DHT22;57172;52.034;5.090;2022-10-16T15:17:26;22.30;48.30
69895;DHT22;57172;52.034;5.090;2022-10-16T15:19:53;22.20;48.30
69895;DHT22;57172;52.034;5.090;2022-10-16T15:22:20;22.10;48.70
69895;DHT22;57172;52.034;5.090;2022-10-16T15:24:49;22.10;49.60
69895;DHT22;57172;52.034;5.090;2022-10-16T15:27:16;22.00;49.40
69895;DHT22;57172;52.034;5.090;2022-10-16T15:29:43;21.90;49.80
69895;DHT22;57172;52.034;5.090;2022-10-16T15:32:10;21.70;50.00
69895;DHT22;57172;52.034;5.090;2022-10-16T15:34:37;21.70;50.40
69895;DHT22;57172;52.034;5.090;2022-10-16T15:37:04;21.60;51.00
69895;DHT22;57172;52.034;5.090;2022-10-16T15:39:31;21.50;51.30
69895;DHT22;57172;52.034;5.090;2022-10-16T15:41:58;21.40;51.70
69895;DHT22;57172;52.034;5.090;2022-10-16T15:44:24;21.30;51.80
69895;DHT22;57172;52.034;5.090;2022-10-16T15:46:56;21.20;52.50
69895;DHT22;57172;52.034;5.090;2022-10-16T15:49:23;21.10;52.90
69895;DHT22;57172;52.034;5.090;2022-10-16T15:51:49;21.00;53.40
69895;DHT22;57172;52.034;5.090;2022-10-16T15:54:18;21.00;54.00
69895;DHT22;57172;52.034;5.090;2022-10-16T15:56:45;20.90;54.50
69895;DHT22;57172;52.034;5.090;2022-10-16T15:59:12;20.90;54.60
69895;DHT22;57172;52.034;5.090;2022-10-16T16:01:39;20.80;54.60
69895;DHT22;57172;52.034;5.090;2022-10-16T16:04:06;20.70;54.90
69895;DHT22;57172;52.034;5.090;2022-10-16T16:06:51;20.60;55.20
69895;DHT22;57172;52.034;5.090;2022-10-16T16:09:18;20.50;55.70
69895;DHT22;57172;52.034;5.090;2022-10-16T16:11:44;20.40;56.10
69895;DHT22;57172;52.034;5.090;2022-10-16T16:14:14;20.40;56.40
69895;DHT22;57172;52.034;5.090;2022-10-16T16:16:41;20.30;56.70
69895;DHT22;57172;52.034;5.090;2022-10-16T16:19:09;20.30;56.80
69895;DHT22;57172;52.034;5.090;2022-10-16T16:21:38;20.20;56.80
69895;DHT22;57172;52.034;5.090;2022-10-16T16:24:05;20.10;56.90
69895;DHT22;57172;52.034;5.090;2022-10-16T16:26:36;19.90;57.30
69895;DHT22;57172;52.034;5.090;2022-10-16T16:29:06;19.70;58.10
69895;DHT22;57172;52.034;5.090;2022-10-16T16:31:33;19.70;58.40
69895;DHT22;57172;52.034;5.090;2022-10-16T16:34:01;19.60;58.50
69895;DHT22;57172;52.034;5.090;2022-10-16T16:36:28;19.60;58.60
69895;DHT22;57172;52.034;5.090;2022-10-16T16:38:56;19.60;58.70
69895;DHT22;57172;52.034;5.090;2022-10-16T16:41:25;19.50;58.80
69895;DHT22;57172;52.034;5.090;2022-10-16T16:43:53;19.50;58.90
69895;DHT22;57172;52.034;5.090;2022-10-16T16:46:21;19.40;59.10
69895;DHT22;57172;52.034;5.090;2022-10-16T16:48:48;19.30;59.40
69895;DHT22;57172;52.034;5.090;2022-10-16T16:51:20;19.30;59.60
69895;DHT22;57172;52.034;5.090;2022-10-16T16:53:49;19.20;59.90
69895;DHT22;57172;52.034;5.090;2022-10-16T16:56:17;19.10;60.10
69895;DHT22;57172;52.034;5.090;2022-10-16T16:58:53;19.10;60.30
69895;DHT22;57172;52.034;5.090;2022-10-16T17:01:22;19.00;60.50
69895;DHT22;57172;52.034;5.090;2022-10-16T17:03:51;19.00;60.60
69895;DHT22;57172;52.034;5.090;2022-10-16T17:06:25;18.90;60.70
69895;DHT22;57172;52.034;5.090;2022-10-16T17:08:52;18.80;61.10
69895;DHT22;57172;52.034;5.090;2022-10-16T17:11:21;18.80;61.30
69895;DHT22;57172;52.034;5.090;2022-10-16T17:13:49;18.70;61.40
69895;DHT22;57172;52.034;5.090;2022-10-16T17:16:24;18.70;61.70
69895;DHT22;57172;52.034;5.090;2022-10-16T17:18:51;18.60;61.70
69895;DHT22;57172;52.034;5.090;2022-10-16T17:21:19;18.60;61.80
69895;DHT22;57172;52.034;5.090;2022-10-16T17:23:46;18.50;62.00
69895;DHT22;57172;52.034;5.090;2022-10-16T17:26:15;18.50;62.00
69895;DHT22;57172;52.034;5.090;2022-10-16T17:28:43;18.40;62.00